EmailTwitter


Observations de surface / Québec / EGGD

Régions: Québec | Canada | États-Unis | Europe | France | UK | Elsewhere
Station
Affichage
Infos & localisation pour EGGD | Aide pour décoder les METARs

Observations prises le 2017-05-26 à 01H20 UTC à BRISTOL/LULSGATE, UK (EGGD)

Température: 15.0 Celsius

Point de rosée: 12.0 Celsius

Humidité relative: 82%

Vents: Est à 20 km/h ou 11 noeuds.

Pression au niveau moyen de la mer: 101.90 kilopascals.

Visibilité horizontale: 6.21 milles terrestres ou 9.94 kilomètres.

Observation METAR:

EGGD 260120Z AUTO 09011KT 9999 NCD 15/12 Q1019=